Time;durP1;ratioP1;P1;durP2;ratioP2;P2;SDS_P1;SDS_P2;PMS_P1;PMS_P2;Temp;Humidity;BMP_temperature;BMP_pressure;BME280_temperature;BME280_humidity;BME280_pressure;Samples;Min_cycle;Max_cycle;Signal;HPM_P1;HPM_P2
2022/08/18 00:01:43;;;;;;;8.45;5.25;;;;;;;;;;5112672;27;20122;-65
2022/08/18 00:04:10;;;;;;;6.78;5.38;;;;;;;;;;5094158;28;20039;-65
2022/08/18 00:06:36;;;;;;;9.63;5.57;;;;;;;;;;5094064;28;20583;-64
2022/08/18 00:09:04;;;;;;;7.80;6.25;;;;;;;;;;5076165;28;20082;-65
2022/08/18 00:11:31;;;;;;;12.57;6.28;;;;;;;;;;5112118;27;20044;-65
2022/08/18 00:13:57;;;;;;;10.80;5.70;;;;;;;;;;5094331;27;20623;-65
2022/08/18 00:16:23;;;;;;;12.57;5.70;;;;;;;;;;5108344;27;20084;-65
2022/08/18 00:18:50;;;;;;;11.13;5.50;;;;;;;;;;5094157;28;20043;-65
2022/08/18 00:21:17;;;;;;;9.65;5.70;;;;;;;;;;5103469;28;20092;-65
2022/08/18 00:23:43;;;;;;;11.90;5.93;;;;;;;;;;5110473;27;20135;-65
2022/08/18 00:26:09;;;;;;;11.70;6.78;;;;;;;;;;5115920;27;20042;-65
2022/08/18 00:28:35;;;;;;;8.10;5.47;;;;;;;;;;5091520;28;20038;-65
2022/08/18 00:31:01;;;;;;;14.52;6.22;;;;;;;;;;5112174;27;20036;-65
2022/08/18 00:33:27;;;;;;;11.27;6.38;;;;;;;;;;5111344;27;20119;-65
2022/08/18 00:35:53;;;;;;;13.52;7.40;;;;;;;;;;5112039;28;20053;-65
2022/08/18 00:38:20;;;;;;;11.10;5.82;;;;;;;;;;5092673;28;20051;-65
2022/08/18 00:40:48;;;;;;;12.35;6.97;;;;;;;;;;5111904;27;20035;-65
2022/08/18 00:43:18;;;;;;;14.75;7.47;;;;;;;;;;5111850;27;20992;-65
2022/08/18 00:45:44;;;;;;;11.65;6.72;;;;;;;;;;5111253;27;20505;-65
2022/08/18 00:48:12;;;;;;;9.20;6.13;;;;;;;;;;5084550;28;20108;-65
2022/08/18 00:50:56;;;;;;;10.88;5.72;;;;;;;;;;5109522;28;20036;-65
2022/08/18 00:53:44;;;;;;;14.57;6.10;;;;;;;;;;5109764;27;20130;-65
2022/08/18 00:56:12;;;;;;;9.90;6.50;;;;;;;;;;5104128;27;20122;-64
2022/08/18 00:58:41;;;;;;;8.75;6.32;;;;;;;;;;5103511;27;20046;-65
2022/08/18 01:01:10;;;;;;;13.07;5.88;;;;;;;;;;5048587;27;20036;-65
2022/08/18 01:03:38;;;;;;;12.25;6.28;;;;;;;;;;5093103;28;20502;-65
2022/08/18 01:06:24;;;;;;;8.80;6.22;;;;;;;;;;5111168;28;20126;-65
2022/08/18 01:08:51;;;;;;;12.13;7.00;;;;;;;;;;5111036;27;20043;-65
2022/08/18 01:11:17;;;;;;;12.05;6.40;;;;;;;;;;5098053;28;20035;-65
2022/08/18 01:13:43;;;;;;;11.90;7.22;;;;;;;;;;5111122;27;20040;-65
2022/08/18 01:21:50;;;;;;;19.00;7.53;;;;;;;;;;5088555;28;20044;-65
2022/08/18 01:24:17;;;;;;;11.55;7.82;;;;;;;;;;5092589;28;20039;-65
2022/08/18 01:26:49;;;;;;;11.35;7.95;;;;;;;;;;5110890;27;20035;-65
2022/08/18 01:29:16;;;;;;;10.18;6.90;;;;;;;;;;5109253;27;20515;-65
2022/08/18 01:32:01;;;;;;;12.88;7.70;;;;;;;;;;5110950;28;20071;-65
2022/08/18 01:34:27;;;;;;;10.40;7.53;;;;;;;;;;5110109;27;20504;-65
2022/08/18 01:36:53;;;;;;;10.27;7.05;;;;;;;;;;5106529;28;20417;-65
2022/08/18 01:39:20;;;;;;;13.25;8.07;;;;;;;;;;5119550;27;20050;-65
2022/08/18 01:41:46;;;;;;;9.18;7.60;;;;;;;;;;5115439;27;20210;-65
2022/08/18 01:44:12;;;;;;;11.57;7.50;;;;;;;;;;5092643;28;20042;-65
2022/08/18 01:46:40;;;;;;;12.73;8.27;;;;;;;;;;5084180;28;20126;-65
2022/08/18 01:49:07;;;;;;;9.60;7.82;;;;;;;;;;5110420;27;20035;-66
2022/08/18 01:51:36;;;;;;;11.30;7.32;;;;;;;;;;5110286;28;20134;-65
2022/08/18 01:54:03;;;;;;;14.02;8.65;;;;;;;;;;5109259;28;20061;-65
2022/08/18 01:56:29;;;;;;;12.80;7.45;;;;;;;;;;5075651;28;20055;-65
2022/08/18 01:58:55;;;;;;;21.02;8.48;;;;;;;;;;5110428;28;20450;-65
2022/08/18 02:01:22;;;;;;;13.07;8.10;;;;;;;;;;5114138;27;20035;-65
2022/08/18 02:03:51;;;;;;;9.40;7.55;;;;;;;;;;5110043;28;20118;-65
2022/08/18 02:06:18;;;;;;;17.60;9.73;;;;;;;;;;5092604;28;20040;-65
2022/08/18 02:08:44;;;;;;;13.77;8.80;;;;;;;;;;5090535;28;20048;-65
2022/08/18 02:11:10;;;;;;;10.52;8.07;;;;;;;;;;5110182;28;20067;-65
2022/08/18 02:13:36;;;;;;;13.57;8.63;;;;;;;;;;5091618;28;20164;-64
2022/08/18 02:16:03;;;;;;;13.57;8.55;;;;;;;;;;5110106;28;20096;-65
2022/08/18 02:18:31;;;;;;;8.23;7.07;;;;;;;;;;5089832;28;20064;-65
2022/08/18 02:20:58;;;;;;;10.77;8.35;;;;;;;;;;5088367;28;20483;-65
2022/08/18 02:23:25;;;;;;;14.40;7.70;;;;;;;;;;5107082;28;20094;-65
2022/08/18 02:25:51;;;;;;;9.18;6.03;;;;;;;;;;5110017;28;20054;-65
2022/08/18 02:28:17;;;;;;;8.85;6.00;;;;;;;;;;5107297;28;20031;-64
2022/08/18 02:30:43;;;;;;;11.13;5.90;;;;;;;;;;5101468;28;20386;-65
2022/08/18 02:33:10;;;;;;;9.85;8.18;;;;;;;;;;5088703;28;20042;-65
2022/08/18 02:35:37;;;;;;;11.77;7.80;;;;;;;;;;5105790;28;20049;-65
2022/08/18 02:38:05;;;;;;;8.93;7.55;;;;;;;;;;5108565;27;20047;-65
2022/08/18 02:40:32;;;;;;;12.30;8.10;;;;;;;;;;5109306;28;20039;-65
2022/08/18 02:42:58;;;;;;;10.40;8.18;;;;;;;;;;5091434;28;20040;-65
2022/08/18 02:45:25;;;;;;;9.80;8.38;;;;;;;;;;5098661;28;20097;-64
2022/08/18 02:47:55;;;;;;;9.07;7.65;;;;;;;;;;5086145;28;20035;-64
2022/08/18 02:50:22;;;;;;;9.90;7.20;;;;;;;;;;5088905;28;20074;-64
2022/08/18 02:52:48;;;;;;;8.45;7.38;;;;;;;;;;5087375;28;20036;-65
2022/08/18 02:55:15;;;;;;;9.98;6.70;;;;;;;;;;5086081;28;20044;-65
2022/08/18 02:57:43;;;;;;;11.25;7.20;;;;;;;;;;5087600;28;20076;-65
2022/08/18 03:00:12;;;;;;;10.32;7.03;;;;;;;;;;5089259;28;20102;-65
2022/08/18 03:02:38;;;;;;;7.70;6.57;;;;;;;;;;5095153;28;20042;-64
2022/08/18 03:05:05;;;;;;;8.57;6.68;;;;;;;;;;5089337;28;20063;-64
2022/08/18 03:07:31;;;;;;;6.88;6.18;;;;;;;;;;5070234;28;20516;-64
2022/08/18 03:09:57;;;;;;;7.97;6.10;;;;;;;;;;5078965;28;20515;-64
2022/08/18 03:12:24;;;;;;;10.73;6.65;;;;;;;;;;5086470;28;20302;-64
2022/08/18 03:14:50;;;;;;;11.25;7.60;;;;;;;;;;5087293;28;20031;-64
2022/08/18 03:17:16;;;;;;;10.43;6.90;;;;;;;;;;5088789;28;20050;-65
2022/08/18 03:19:44;;;;;;;9.15;6.90;;;;;;;;;;5087604;28;20036;-64
2022/08/18 03:22:10;;;;;;;9.52;7.20;;;;;;;;;;5083121;28;20052;-65
2022/08/18 03:24:36;;;;;;;13.52;7.50;;;;;;;;;;5093504;28;20069;-65
2022/08/18 03:27:06;;;;;;;8.60;7.07;;;;;;;;;;5085545;28;20047;-64
2022/08/18 03:29:33;;;;;;;8.55;7.25;;;;;;;;;;5087468;28;20509;-64
2022/08/18 03:32:01;;;;;;;12.35;7.40;;;;;;;;;;5083933;28;20132;-66
2022/08/18 03:34:27;;;;;;;13.00;8.07;;;;;;;;;;5087518;28;20036;-65
2022/08/18 03:36:53;;;;;;;9.07;6.68;;;;;;;;;;5087812;28;20040;-64
2022/08/18 03:39:22;;;;;;;13.77;7.93;;;;;;;;;;5087350;28;20051;-65
2022/08/18 03:41:49;;;;;;;12.40;8.05;;;;;;;;;;5082532;28;20032;-65
2022/08/18 03:44:16;;;;;;;10.68;7.68;;;;;;;;;;5089028;28;20414;-64
2022/08/18 03:46:43;;;;;;;10.35;7.30;;;;;;;;;;5107609;28;20048;-65
2022/08/18 03:49:09;;;;;;;13.38;7.95;;;;;;;;;;5109166;28;20040;-65
2022/08/18 03:51:35;;;;;;;12.27;8.05;;;;;;;;;;5108757;28;20035;-65
2022/08/18 03:54:03;;;;;;;12.73;7.93;;;;;;;;;;5072962;28;20067;-64
2022/08/18 03:56:39;;;;;;;13.20;9.20;;;;;;;;;;5087359;28;20123;-65
2022/08/18 03:59:09;;;;;;;13.23;8.77;;;;;;;;;;5109346;28;20036;-65
2022/08/18 04:01:40;;;;;;;11.90;8.15;;;;;;;;;;5090501;28;20048;-65
2022/08/18 04:04:07;;;;;;;13.48;8.77;;;;;;;;;;5098316;28;20118;-65
2022/08/18 04:06:39;;;;;;;12.25;8.35;;;;;;;;;;5108729;28;20496;-64
2022/08/18 04:09:07;;;;;;;10.65;6.60;;;;;;;;;;5108771;28;20043;-65
2022/08/18 04:11:34;;;;;;;13.65;8.43;;;;;;;;;;5095861;28;20081;-65
2022/08/18 04:14:01;;;;;;;11.27;6.47;;;;;;;;;;5078662;28;20118;-65
2022/08/18 04:16:28;;;;;;;12.15;7.28;;;;;;;;;;5112198;28;20043;-64
2022/08/18 04:18:56;;;;;;;11.30;7.32;;;;;;;;;;5111901;27;20242;-64
2022/08/18 04:21:23;;;;;;;10.50;7.65;;;;;;;;;;5102186;27;20047;-64
2022/08/18 04:23:49;;;;;;;10.52;6.97;;;;;;;;;;5077836;27;20058;-65
2022/08/18 04:26:17;;;;;;;10.77;6.80;;;;;;;;;;5081312;28;20036;-64
2022/08/18 04:28:43;;;;;;;9.43;6.85;;;;;;;;;;5102768;28;20039;-64
2022/08/18 04:31:10;;;;;;;9.07;6.15;;;;;;;;;;5088520;28;20069;-64
2022/08/18 04:33:37;;;;;;;7.82;6.30;;;;;;;;;;5108439;27;20092;-65
2022/08/18 04:36:07;;;;;;;11.85;7.28;;;;;;;;;;5108496;27;20035;-64
2022/08/18 04:38:34;;;;;;;9.88;6.25;;;;;;;;;;5104158;27;20038;-64
2022/08/18 04:41:00;;;;;;;9.23;7.30;;;;;;;;;;5079928;28;20127;-64
2022/08/18 04:43:26;;;;;;;11.65;7.18;;;;;;;;;;5089134;27;20461;-64
2022/08/18 04:45:52;;;;;;;8.27;6.07;;;;;;;;;;5099753;28;20043;-64
2022/08/18 04:48:18;;;;;;;8.68;6.20;;;;;;;;;;5080183;28;20059;-65
2022/08/18 04:50:44;;;;;;;7.63;6.18;;;;;;;;;;5104176;27;20057;-65
2022/08/18 04:55:55;;;;;;;9.82;5.68;;;;;;;;;;5110605;28;20156;-64
2022/08/18 04:58:22;;;;;;;9.48;6.40;;;;;;;;;;5103643;28;20415;-64
2022/08/18 05:00:59;;;;;;;9.65;6.30;;;;;;;;;;5101607;27;20032;-65
2022/08/18 05:03:25;;;;;;;11.00;6.32;;;;;;;;;;5087212;28;20031;-65
2022/08/18 05:05:56;;;;;;;7.53;5.95;;;;;;;;;;5093749;27;20077;-64
2022/08/18 05:08:23;;;;;;;9.13;5.90;;;;;;;;;;5095699;27;20078;-64
2022/08/18 05:10:53;;;;;;;8.95;6.05;;;;;;;;;;5091320;28;20467;-64
2022/08/18 05:13:20;;;;;;;9.60;6.18;;;;;;;;;;5105712;28;20039;-64
2022/08/18 05:15:51;;;;;;;7.40;5.32;;;;;;;;;;5092843;27;20047;-64
2022/08/18 05:18:19;;;;;;;10.60;6.17;;;;;;;;;;5075280;28;20040;-64
2022/08/18 05:20:45;;;;;;;13.07;6.25;;;;;;;;;;5105408;28;20097;-64
2022/08/18 05:23:11;;;;;;;10.35;5.70;;;;;;;;;;5086540;28;20071;-64
2022/08/18 05:25:38;;;;;;;9.25;5.72;;;;;;;;;;5083471;28;20062;-64
2022/08/18 05:28:05;;;;;;;6.80;5.32;;;;;;;;;;5087338;28;20125;-64
2022/08/18 05:30:31;;;;;;;9.35;5.65;;;;;;;;;;5102137;27;20451;-65
2022/08/18 05:32:58;;;;;;;8.73;6.03;;;;;;;;;;5093518;28;20501;-64
2022/08/18 05:35:32;;;;;;;7.85;5.60;;;;;;;;;;5106579;28;20043;-64
2022/08/18 05:38:01;;;;;;;17.17;6.82;;;;;;;;;;5099347;27;20092;-64
2022/08/18 05:40:28;;;;;;;8.98;5.63;;;;;;;;;;5101249;27;20406;-65
2022/08/18 05:42:56;;;;;;;8.48;5.55;;;;;;;;;;5079237;28;20043;-64
2022/08/18 05:45:22;;;;;;;11.10;5.85;;;;;;;;;;5075768;28;20055;-64
2022/08/18 05:47:49;;;;;;;7.47;5.63;;;;;;;;;;5085480;28;20108;-64
2022/08/18 05:50:18;;;;;;;12.27;6.00;;;;;;;;;;5090062;28;20044;-64
2022/08/18 05:52:51;;;;;;;10.07;5.47;;;;;;;;;;5091170;28;20038;-66
2022/08/18 05:58:23;;;;;;;11.23;6.32;;;;;;;;;;5095040;28;20239;-66
2022/08/18 06:00:55;;;;;;;9.05;5.13;;;;;;;;;;5109515;28;20051;-65
2022/08/18 06:03:34;;;;;;;9.50;5.25;;;;;;;;;;5079725;28;20075;-65
2022/08/18 06:06:02;;;;;;;11.38;5.28;;;;;;;;;;5090226;28;20512;-66
2022/08/18 06:08:36;;;;;;;10.27;4.28;;;;;;;;;;5091075;28;20198;-65
2022/08/18 06:11:02;;;;;;;6.95;4.10;;;;;;;;;;5110902;28;20039;-65
2022/08/18 06:13:29;;;;;;;7.07;3.38;;;;;;;;;;5109415;27;20050;-65
2022/08/18 06:16:09;;;;;;;7.88;3.35;;;;;;;;;;5090255;28;20144;-65
2022/08/18 06:18:56;;;;;;;6.90;3.13;;;;;;;;;;5100447;28;20745;-65
2022/08/18 06:21:37;;;;;;;5.82;2.38;;;;;;;;;;5080841;28;20062;-65
2022/08/18 06:24:13;;;;;;;5.93;2.60;;;;;;;;;;5071509;28;20044;-65
2022/08/18 06:26:48;;;;;;;6.05;2.40;;;;;;;;;;5106464;27;20408;-64
2022/08/18 06:29:17;;;;;;;3.65;1.90;;;;;;;;;;5093237;28;20062;-66
2022/08/18 06:31:52;;;;;;;3.97;2.00;;;;;;;;;;5082067;28;20032;-65
2022/08/18 06:34:28;;;;;;;5.10;2.10;;;;;;;;;;5097014;27;20155;-64
2022/08/18 06:36:59;;;;;;;8.40;2.50;;;;;;;;;;5089446;28;20050;-64
2022/08/18 06:39:35;;;;;;;7.10;2.38;;;;;;;;;;5095441;28;20044;-65
2022/08/18 06:42:04;;;;;;;6.88;2.60;;;;;;;;;;5076016;28;20082;-65
2022/08/18 06:44:35;;;;;;;4.43;2.08;;;;;;;;;;5093088;28;20040;-67
2022/08/18 06:47:10;;;;;;;13.30;3.28;;;;;;;;;;5075483;28;20151;-66
2022/08/18 06:49:39;;;;;;;4.85;3.17;;;;;;;;;;5073528;28;20050;-67
2022/08/18 06:52:28;;;;;;;7.72;3.03;;;;;;;;;;5092490;28;20046;-65
2022/08/18 06:54:55;;;;;;;6.43;3.10;;;;;;;;;;5059847;28;20061;-67
2022/08/18 06:57:24;;;;;;;6.78;3.08;;;;;;;;;;5077878;28;20500;-66
2022/08/18 06:59:59;;;;;;;6.78;3.38;;;;;;;;;;5074025;28;20097;-67
2022/08/18 07:02:31;;;;;;;5.80;3.25;;;;;;;;;;5084078;28;20039;-70
2022/08/18 07:05:00;;;;;;;4.32;2.90;;;;;;;;;;5073600;28;20408;-70
2022/08/18 07:07:31;;;;;;;5.35;2.95;;;;;;;;;;5095159;28;20048;-70
2022/08/18 07:09:57;;;;;;;5.70;3.28;;;;;;;;;;5073206;28;20035;-70
2022/08/18 07:12:25;;;;;;;4.35;2.60;;;;;;;;;;5084800;28;20119;-71
2022/08/18 07:14:53;;;;;;;5.15;3.03;;;;;;;;;;5081748;28;20196;-70
2022/08/18 07:17:32;;;;;;;5.25;2.17;;;;;;;;;;5096478;28;20040;-70
2022/08/18 07:20:07;;;;;;;6.93;2.40;;;;;;;;;;5077133;28;20047;-71
2022/08/18 07:22:52;;;;;;;3.95;2.15;;;;;;;;;;5102066;28;20417;-70
2022/08/18 07:25:23;;;;;;;4.70;2.20;;;;;;;;;;5079431;28;20085;-71
2022/08/18 07:27:51;;;;;;;6.15;3.08;;;;;;;;;;5079624;28;20044;-71
2022/08/18 07:30:20;;;;;;;8.63;2.70;;;;;;;;;;5078532;28;20043;-71
2022/08/18 07:33:04;;;;;;;6.85;2.55;;;;;;;;;;5096279;28;20032;-71
2022/08/18 07:35:38;;;;;;;5.97;2.42;;;;;;;;;;5091065;28;20129;-71
2022/08/18 07:38:18;;;;;;;4.28;2.55;;;;;;;;;;5070887;28;20052;-70
2022/08/18 07:40:47;;;;;;;5.18;2.60;;;;;;;;;;5063815;28;20048;-70
2022/08/18 07:43:52;;;;;;;4.15;2.42;;;;;;;;;;5082575;28;20417;-70
2022/08/18 07:46:38;;;;;;;10.25;3.03;;;;;;;;;;5014953;28;20104;-70
2022/08/18 07:49:05;;;;;;;4.05;2.33;;;;;;;;;;5088290;28;20390;-70
2022/08/18 07:51:50;;;;;;;6.45;2.60;;;;;;;;;;5084973;28;20051;-70
2022/08/18 07:54:25;;;;;;;7.88;3.22;;;;;;;;;;5079858;27;20282;-70
2022/08/18 07:56:51;;;;;;;5.40;2.17;;;;;;;;;;5102400;28;20044;-70
2022/08/18 07:59:39;;;;;;;4.28;2.45;;;;;;;;;;5083532;28;20075;-70
2022/08/18 08:02:05;;;;;;;5.45;2.70;;;;;;;;;;5100315;27;20039;-70
2022/08/18 08:04:50;;;;;;;5.55;1.88;;;;;;;;;;5076229;28;20043;-71
2022/08/18 08:07:20;;;;;;;8.00;1.73;;;;;;;;;;5101672;28;20028;-70
2022/08/18 08:09:59;;;;;;;4.40;2.20;;;;;;;;;;5103325;27;20126;-69
2022/08/18 08:12:29;;;;;;;3.40;2.13;;;;;;;;;;5095252;28;20478;-70
2022/08/18 08:15:11;;;;;;;4.53;2.15;;;;;;;;;;5080621;28;20371;-71
2022/08/18 08:17:54;;;;;;;3.75;2.15;;;;;;;;;;5084974;27;20843;-70
2022/08/18 08:20:27;;;;;;;5.38;1.77;;;;;;;;;;5078752;28;20752;-70
2022/08/18 08:23:02;;;;;;;4.90;2.22;;;;;;;;;;5068246;28;20067;-70
2022/08/18 08:25:40;;;;;;;5.75;2.28;;;;;;;;;;5099360;27;20695;-70
2022/08/18 08:28:13;;;;;;;3.92;1.30;;;;;;;;;;5100866;27;20039;-70
2022/08/18 08:30:59;;;;;;;4.85;1.90;;;;;;;;;;5091857;28;20119;-70
2022/08/18 08:33:33;;;;;;;6.70;2.17;;;;;;;;;;5059244;28;20500;-70
2022/08/18 08:36:11;;;;;;;2.75;1.73;;;;;;;;;;5085685;27;20055;-70
2022/08/18 08:38:40;;;;;;;5.03;1.98;;;;;;;;;;5093994;27;20067;-70
2022/08/18 08:41:13;;;;;;;8.50;2.22;;;;;;;;;;5098913;27;20044;-70
2022/08/18 08:43:45;;;;;;;4.63;1.95;;;;;;;;;;5085231;28;20032;-70
2022/08/18 08:46:23;;;;;;;7.80;2.05;;;;;;;;;;5055479;28;20083;-70
2022/08/18 08:48:52;;;;;;;6.47;1.95;;;;;;;;;;5083220;28;20511;-70
2022/08/18 08:51:24;;;;;;;9.20;1.98;;;;;;;;;;5095403;28;20075;-70
2022/08/18 08:53:54;;;;;;;4.18;2.15;;;;;;;;;;5076759;28;20046;-70
2022/08/18 08:56:21;;;;;;;2.53;1.75;;;;;;;;;;5078990;28;20489;-70
2022/08/18 08:58:55;;;;;;;2.38;1.50;;;;;;;;;;5064194;28;20423;-70
2022/08/18 09:01:30;;;;;;;4.72;1.95;;;;;;;;;;5079675;28;20124;-70
2022/08/18 09:03:59;;;;;;;3.47;1.80;;;;;;;;;;5097582;28;20070;-72
2022/08/18 09:06:25;;;;;;;4.45;1.95;;;;;;;;;;5100358;27;20405;-71
2022/08/18 09:09:04;;;;;;;3.38;1.65;;;;;;;;;;5074853;28;20096;-70
2022/08/18 09:11:49;;;;;;;2.45;1.80;;;;;;;;;;5070096;28;20040;-71
2022/08/18 09:14:27;;;;;;;4.82;1.80;;;;;;;;;;5078424;28;20032;-69
2022/08/18 09:17:13;;;;;;;6.78;2.42;;;;;;;;;;5081961;28;20135;-70
2022/08/18 09:19:39;;;;;;;3.30;2.22;;;;;;;;;;5057120;28;20096;-70
2022/08/18 09:22:24;;;;;;;8.32;2.72;;;;;;;;;;5077690;28;20044;-69
2022/08/18 09:24:52;;;;;;;2.28;1.70;;;;;;;;;;5074251;28;20048;-70
2022/08/18 09:27:40;;;;;;;3.90;2.08;;;;;;;;;;5072841;28;20056;-70
2022/08/18 09:30:08;;;;;;;3.03;1.73;;;;;;;;;;5076035;28;20044;-70
2022/08/18 09:32:41;;;;;;;5.30;1.88;;;;;;;;;;5104192;27;20462;-70
2022/08/18 09:35:25;;;;;;;6.32;2.38;;;;;;;;;;5079845;28;20458;-69
2022/08/18 09:43:38;;;;;;;3.30;1.63;;;;;;;;;;5079775;28;20051;-70
2022/08/18 09:46:06;;;;;;;3.00;1.60;;;;;;;;;;5085336;28;20083;-69
2022/08/18 09:48:34;;;;;;;3.33;1.48;;;;;;;;;;5081592;28;20551;-70
2022/08/18 09:51:14;;;;;;;5.47;1.70;;;;;;;;;;5067695;28;20039;-71
2022/08/18 09:53:47;;;;;;;3.85;1.95;;;;;;;;;;5091947;28;20068;-71
2022/08/18 09:56:14;;;;;;;3.83;1.83;;;;;;;;;;5076202;28;20096;-71
2022/08/18 09:58:49;;;;;;;6.82;3.10;;;;;;;;;;5078235;28;20101;-71
2022/08/18 10:01:22;;;;;;;3.38;1.65;;;;;;;;;;5090658;28;20086;-68
2022/08/18 10:04:08;;;;;;;4.55;2.28;;;;;;;;;;5081437;28;20047;-68
2022/08/18 10:06:36;;;;;;;3.72;1.92;;;;;;;;;;5099545;28;20095;-68
2022/08/18 10:09:06;;;;;;;4.05;1.92;;;;;;;;;;5083185;28;20165;-69
2022/08/18 10:11:50;;;;;;;10.40;2.30;;;;;;;;;;5080444;28;20393;-68
2022/08/18 10:14:27;;;;;;;3.25;2.20;;;;;;;;;;5076022;28;20047;-68
2022/08/18 10:17:16;;;;;;;4.28;2.10;;;;;;;;;;5076161;28;20100;-68
2022/08/18 10:20:01;;;;;;;3.60;1.92;;;;;;;;;;5086418;28;20048;-68
2022/08/18 10:22:47;;;;;;;3.20;1.67;;;;;;;;;;5076509;28;20047;-68
2022/08/18 10:25:29;;;;;;;2.60;1.80;;;;;;;;;;5077237;28;20044;-68
2022/08/18 10:27:56;;;;;;;5.35;1.80;;;;;;;;;;5062636;28;20116;-68
2022/08/18 10:30:32;;;;;;;3.40;1.80;;;;;;;;;;5045708;28;20149;-68
2022/08/18 10:32:58;;;;;;;4.00;2.13;;;;;;;;;;5089519;28;20036;-68
2022/08/18 10:35:36;;;;;;;3.53;1.83;;;;;;;;;;5100121;27;20447;-69
2022/08/18 10:38:09;;;;;;;3.03;1.90;;;;;;;;;;5071857;28;20044;-68
2022/08/18 10:40:36;;;;;;;9.00;2.47;;;;;;;;;;5076688;28;20035;-68
2022/08/18 10:43:21;;;;;;;3.47;1.35;;;;;;;;;;5078438;28;20432;-68
2022/08/18 10:45:48;;;;;;;2.20;1.65;;;;;;;;;;5073683;28;20044;-69
2022/08/18 10:48:14;;;;;;;5.95;1.70;;;;;;;;;;5068786;28;20051;-68
2022/08/18 10:50:43;;;;;;;5.38;1.50;;;;;;;;;;5070991;28;20039;-68
2022/08/18 10:53:24;;;;;;;3.63;1.58;;;;;;;;;;5057122;28;20480;-69
2022/08/18 10:56:00;;;;;;;3.80;2.10;;;;;;;;;;5085653;28;20392;-69
2022/08/18 10:58:39;;;;;;;4.57;1.73;;;;;;;;;;5076460;28;20068;-68
2022/08/18 11:01:10;;;;;;;3.85;1.77;;;;;;;;;;5069571;28;20040;-68
2022/08/18 11:03:45;;;;;;;3.20;1.50;;;;;;;;;;5082330;28;20097;-68
2022/08/18 11:06:16;;;;;;;3.08;1.77;;;;;;;;;;5074149;28;20433;-68
2022/08/18 11:08:44;;;;;;;3.17;1.70;;;;;;;;;;5073511;28;20039;-69
2022/08/18 11:11:11;;;;;;;2.05;1.33;;;;;;;;;;5076076;28;20036;-69
2022/08/18 11:13:41;;;;;;;3.50;1.52;;;;;;;;;;5075430;28;20646;-68
2022/08/18 11:16:17;;;;;;;3.22;2.13;;;;;;;;;;5070182;28;20654;-68
2022/08/18 11:18:50;;;;;;;3.95;1.77;;;;;;;;;;5073065;28;20039;-68
2022/08/18 11:21:35;;;;;;;3.38;1.90;;;;;;;;;;5075537;28;20132;-68
2022/08/18 11:24:02;;;;;;;2.63;1.60;;;;;;;;;;5075950;28;20052;-68
2022/08/18 11:26:33;;;;;;;6.30;2.20;;;;;;;;;;5080468;28;20523;-68
2022/08/18 11:29:01;;;;;;;3.55;1.80;;;;;;;;;;5076481;28;20044;-68
2022/08/18 11:31:27;;;;;;;1.98;1.50;;;;;;;;;;5081177;28;20490;-68
2022/08/18 11:33:53;;;;;;;3.97;1.63;;;;;;;;;;5071307;28;20077;-68
2022/08/18 11:36:29;;;;;;;2.70;1.73;;;;;;;;;;5057484;28;20036;-68
2022/08/18 11:38:56;;;;;;;2.40;1.30;;;;;;;;;;5076218;28;20425;-68
2022/08/18 11:41:26;;;;;;;2.50;1.95;;;;;;;;;;5079335;28;20145;-68
2022/08/18 11:43:58;;;;;;;2.38;2.05;;;;;;;;;;5081019;28;20119;-69
2022/08/18 11:46:29;;;;;;;4.72;1.80;;;;;;;;;;5079631;28;20060;-68
2022/08/18 11:48:55;;;;;;;7.88;2.25;;;;;;;;;;5075745;28;20056;-69
2022/08/18 11:51:24;;;;;;;2.67;1.77;;;;;;;;;;5076520;28;20040;-68
2022/08/18 11:53:52;;;;;;;3.05;1.70;;;;;;;;;;5077523;28;20474;-69
2022/08/18 11:56:24;;;;;;;3.30;1.90;;;;;;;;;;5076110;28;20048;-68
2022/08/18 11:59:04;;;;;;;6.15;2.03;;;;;;;;;;5072162;28;20045;-69
2022/08/18 12:01:43;;;;;;;2.88;1.60;;;;;;;;;;5082167;28;20040;-69
2022/08/18 12:04:13;;;;;;;4.40;1.92;;;;;;;;;;5083723;28;20079;-69
2022/08/18 12:06:50;;;;;;;2.53;1.85;;;;;;;;;;5081934;28;20135;-69
2022/08/18 12:09:18;;;;;;;2.88;1.85;;;;;;;;;;5062097;28;20044;-69
2022/08/18 12:11:55;;;;;;;3.35;1.70;;;;;;;;;;5080605;28;20101;-69
2022/08/18 12:14:24;;;;;;;1.77;1.17;;;;;;;;;;5076171;28;20387;-69
2022/08/18 12:16:50;;;;;;;2.78;1.80;;;;;;;;;;5076294;28;20044;-69
2022/08/18 12:19:17;;;;;;;2.95;2.00;;;;;;;;;;5074885;28;20045;-69
2022/08/18 12:21:45;;;;;;;5.95;2.00;;;;;;;;;;5075791;28;20127;-68
2022/08/18 12:24:19;;;;;;;3.40;2.00;;;;;;;;;;5065834;28;20732;-68
2022/08/18 12:26:46;;;;;;;5.53;2.20;;;;;;;;;;5058981;28;20067;-68
2022/08/18 12:29:12;;;;;;;2.90;1.92;;;;;;;;;;5084953;28;20501;-69
2022/08/18 12:31:39;;;;;;;2.85;2.08;;;;;;;;;;5063887;28;20394;-68
2022/08/18 12:34:05;;;;;;;3.10;2.20;;;;;;;;;;5080741;28;20497;-68
2022/08/18 12:36:31;;;;;;;3.95;1.90;;;;;;;;;;5080892;28;20441;-69
2022/08/18 12:38:57;;;;;;;3.38;1.85;;;;;;;;;;5080736;28;20050;-69
2022/08/18 12:41:24;;;;;;;1.85;1.40;;;;;;;;;;5082564;28;20074;-68
2022/08/18 12:43:52;;;;;;;3.08;1.88;;;;;;;;;;5079214;28;20200;-68
2022/08/18 12:46:18;;;;;;;3.00;2.20;;;;;;;;;;5101153;28;20047;-69
2022/08/18 12:48:45;;;;;;;7.53;2.05;;;;;;;;;;5085188;28;20044;-69
2022/08/18 12:51:12;;;;;;;3.38;2.05;;;;;;;;;;5083939;27;20118;-63
2022/08/18 12:53:38;;;;;;;3.67;2.00;;;;;;;;;;5105336;27;20043;-63
2022/08/18 12:56:06;;;;;;;5.65;2.13;;;;;;;;;;5101932;28;20040;-63
2022/08/18 12:58:32;;;;;;;3.08;1.73;;;;;;;;;;5099418;27;20044;-63
2022/08/18 13:00:59;;;;;;;5.03;2.20;;;;;;;;;;5075170;28;20085;-63
2022/08/18 13:03:25;;;;;;;2.40;1.90;;;;;;;;;;5085203;28;20051;-64
2022/08/18 13:05:52;;;;;;;4.47;2.08;;;;;;;;;;5105418;27;20035;-63
2022/08/18 13:08:20;;;;;;;3.00;1.90;;;;;;;;;;5075309;28;20040;-63
2022/08/18 13:10:47;;;;;;;2.83;1.98;;;;;;;;;;5104575;27;20035;-63
2022/08/18 13:13:14;;;;;;;2.83;1.85;;;;;;;;;;5104755;28;20150;-63
2022/08/18 13:15:40;;;;;;;3.70;2.10;;;;;;;;;;5100153;27;20039;-63
2022/08/18 13:18:07;;;;;;;3.20;2.05;;;;;;;;;;5097954;28;20059;-63
2022/08/18 13:20:33;;;;;;;2.92;2.17;;;;;;;;;;5084042;28;20055;-63
2022/08/18 13:22:59;;;;;;;3.67;2.38;;;;;;;;;;5080725;28;20048;-65
2022/08/18 13:25:25;;;;;;;4.63;2.42;;;;;;;;;;5082583;28;20646;-65
2022/08/18 13:27:52;;;;;;;3.50;2.35;;;;;;;;;;5104516;27;20040;-65
2022/08/18 13:30:18;;;;;;;3.83;1.98;;;;;;;;;;5082760;27;20051;-65
2022/08/18 13:32:44;;;;;;;3.47;2.05;;;;;;;;;;5104891;28;20039;-65
2022/08/18 13:35:11;;;;;;;3.85;2.50;;;;;;;;;;5099560;28;20040;-65
2022/08/18 13:37:37;;;;;;;5.32;2.30;;;;;;;;;;5102557;27;20040;-65
2022/08/18 13:40:04;;;;;;;7.28;2.38;;;;;;;;;;5098478;27;20051;-65
2022/08/18 13:42:30;;;;;;;3.53;2.03;;;;;;;;;;5102492;27;20043;-65
2022/08/18 13:45:00;;;;;;;2.70;2.10;;;;;;;;;;5084451;28;20445;-65
2022/08/18 13:47:28;;;;;;;3.72;2.30;;;;;;;;;;5103127;28;20050;-65
2022/08/18 13:49:54;;;;;;;9.98;2.40;;;;;;;;;;5078192;28;20083;-65
2022/08/18 13:52:20;;;;;;;2.95;2.08;;;;;;;;;;5079808;28;20031;-65
2022/08/18 13:54:46;;;;;;;3.20;2.13;;;;;;;;;;5097738;27;20496;-64
2022/08/18 13:57:13;;;;;;;3.63;2.08;;;;;;;;;;5094437;27;20047;-65
2022/08/18 13:59:39;;;;;;;3.38;2.10;;;;;;;;;;5104293;28;20210;-65
2022/08/18 14:02:08;;;;;;;5.05;2.05;;;;;;;;;;5096796;28;20043;-65
2022/08/18 14:04:35;;;;;;;3.42;2.30;;;;;;;;;;5096256;27;20552;-65
2022/08/18 14:07:01;;;;;;;3.97;2.20;;;;;;;;;;5097509;28;20047;-65
2022/08/18 14:09:28;;;;;;;3.78;2.13;;;;;;;;;;5077355;28;20044;-65
2022/08/18 14:11:54;;;;;;;6.10;2.33;;;;;;;;;;5073937;28;20081;-65
2022/08/18 14:14:20;;;;;;;4.78;2.17;;;;;;;;;;5092644;27;20421;-65
2022/08/18 14:16:47;;;;;;;3.50;2.45;;;;;;;;;;5093044;28;20036;-65
2022/08/18 14:27:33;;;;;;;5.07;2.50;;;;;;;;;;5074860;27;20303;-65
2022/08/18 14:30:00;;;;;;;2.22;1.92;;;;;;;;;;5089656;28;20050;-66
2022/08/18 14:32:28;;;;;;;3.03;2.33;;;;;;;;;;5087444;27;20141;-65
2022/08/18 14:34:54;;;;;;;2.95;2.25;;;;;;;;;;5085230;28;20408;-65
2022/08/18 14:37:20;;;;;;;5.05;2.20;;;;;;;;;;5081252;28;20051;-65
2022/08/18 14:39:47;;;;;;;2.80;2.05;;;;;;;;;;5077983;28;20050;-65
2022/08/18 14:42:14;;;;;;;4.45;2.42;;;;;;;;;;5074454;28;20047;-66
2022/08/18 14:44:40;;;;;;;4.47;2.40;;;;;;;;;;5105657;28;20045;-78
2022/08/18 14:47:06;;;;;;;5.55;2.42;;;;;;;;;;5086507;28;20063;-78
2022/08/18 14:49:33;;;;;;;3.53;2.22;;;;;;;;;;5075008;28;20042;-78
2022/08/18 14:52:00;;;;;;;5.57;2.47;;;;;;;;;;5082880;28;20059;-78
2022/08/18 14:54:27;;;;;;;7.85;2.42;;;;;;;;;;5086526;28;20497;-80
2022/08/18 14:56:53;;;;;;;62.58;8.60;;;;;;;;;;5060231;28;20055;-79
2022/08/18 14:59:20;;;;;;;160.40;17.55;;;;;;;;;;5084011;28;20851;-78
2022/08/18 15:01:46;;;;;;;6.55;2.30;;;;;;;;;;5084384;28;20042;-77
2022/08/18 15:04:14;;;;;;;3.80;2.45;;;;;;;;;;5089484;28;20551;-78
2022/08/18 15:06:40;;;;;;;3.15;2.00;;;;;;;;;;5086649;28;20047;-79
2022/08/18 15:09:06;;;;;;;3.83;2.38;;;;;;;;;;5072768;28;20032;-79
2022/08/18 15:11:33;;;;;;;7.55;2.55;;;;;;;;;;5077360;28;20102;-76
2022/08/18 15:13:59;;;;;;;2.85;1.98;;;;;;;;;;5081710;28;20640;-76
2022/08/18 15:16:26;;;;;;;4.63;2.28;;;;;;;;;;5092904;28;20074;-77
2022/08/18 15:18:52;;;;;;;2.85;1.88;;;;;;;;;;5081600;28;20044;-77
2022/08/18 15:26:51;;;;;;;4.45;2.03;;;;;;;;;;5079400;28;20413;-79
2022/08/18 15:29:17;;;;;;;3.67;2.45;;;;;;;;;;5086735;28;20039;-72